Time;durP1;ratioP1;P1;durP2;ratioP2;P2;SDS_P1;SDS_P2;PMS_P1;PMS_P2;Temp;Humidity;BMP_temperature;BMP_pressure;BME280_temperature;BME280_humidity;BME280_pressure;Samples;Min_cycle;Max_cycle;Signal;HPM_P1;HPM_P2
2023/12/19 00:02:28;;;;;;;60.15;21.05;;;;;;;6.67;100.00;102675.69;5211789;28;20254;-71
2023/12/19 00:04:58;;;;;;;53.22;20.92;;;;;;;6.66;100.00;102671.31;5204313;28;20029;-71
2023/12/19 00:07:29;;;;;;;46.72;19.08;;;;;;;6.67;100.00;102665.00;5204201;28;20472;-71
2023/12/19 00:10:00;;;;;;;56.60;20.55;;;;;;;6.69;100.00;102660.44;5204112;28;20112;-71
2023/12/19 00:12:30;;;;;;;53.65;19.48;;;;;;;6.78;100.00;102661.69;5209027;28;20507;-71
2023/12/19 00:15:01;;;;;;;57.33;20.73;;;;;;;6.69;100.00;102654.25;5204258;28;20476;-70
2023/12/19 00:17:31;;;;;;;55.45;20.13;;;;;;;6.62;100.00;102656.44;5219370;28;20025;-70
2023/12/19 00:20:02;;;;;;;60.03;21.38;;;;;;;6.75;100.00;102648.53;5203761;28;20021;-71
2023/12/19 00:22:33;;;;;;;52.67;20.05;;;;;;;6.68;100.00;102644.56;5203827;28;20017;-70
2023/12/19 00:25:04;;;;;;;52.15;20.27;;;;;;;6.71;100.00;102620.34;5203945;28;20112;-70
2023/12/19 00:27:34;;;;;;;71.82;21.15;;;;;;;6.60;100.00;102613.03;5209024;28;20040;-71
2023/12/19 00:30:05;;;;;;;47.92;19.58;;;;;;;6.58;100.00;102614.09;5198375;28;20072;-71
2023/12/19 00:32:36;;;;;;;54.28;19.58;;;;;;;6.49;100.00;102607.53;5211708;28;20033;-71
2023/12/19 00:35:06;;;;;;;53.80;19.90;;;;;;;6.61;100.00;102603.22;5203383;28;20073;-71
2023/12/19 00:37:37;;;;;;;53.67;19.38;;;;;;;6.54;100.00;102612.56;5203560;28;20037;-71
2023/12/19 00:40:10;;;;;;;54.17;20.38;;;;;;;6.54;100.00;102624.09;5213342;28;20036;-71
2023/12/19 00:42:42;;;;;;;65.72;20.95;;;;;;;6.49;100.00;102619.03;5207306;28;20485;-71
2023/12/19 00:45:12;;;;;;;60.20;20.27;;;;;;;6.62;100.00;102623.59;5211111;28;20030;-71
2023/12/19 00:47:43;;;;;;;51.53;19.23;;;;;;;6.70;100.00;102610.63;5203238;28;20020;-71
2023/12/19 00:50:15;;;;;;;54.97;22.17;;;;;;;6.58;100.00;102606.09;5203161;28;20030;-72
2023/12/19 00:52:45;;;;;;;58.28;21.17;;;;;;;6.61;100.00;102601.41;5203264;28;20096;-70
2023/12/19 00:55:16;;;;;;;52.65;20.42;;;;;;;6.57;100.00;102599.03;5214390;28;20155;-70
2023/12/19 00:57:46;;;;;;;59.20;20.63;;;;;;;6.65;100.00;102600.25;5208910;28;20029;-70
2023/12/19 01:00:17;;;;;;;53.55;18.70;;;;;;;6.60;100.00;102585.50;5202973;28;20025;-71
2023/12/19 01:02:48;;;;;;;53.58;21.25;;;;;;;6.56;100.00;102590.16;5203183;28;20149;-70
2023/12/19 01:05:18;;;;;;;51.63;18.38;;;;;;;6.66;100.00;102585.09;5189708;28;20495;-71
2023/12/19 01:07:49;;;;;;;57.17;20.88;;;;;;;6.67;100.00;102592.13;5203152;28;20456;-70
2023/12/19 01:10:20;;;;;;;48.30;19.50;;;;;;;6.60;100.00;102583.69;5197984;28;20291;-70
2023/12/19 01:12:51;;;;;;;54.97;21.40;;;;;;;6.68;100.00;102588.53;5212188;28;20380;-71
2023/12/19 01:15:22;;;;;;;56.53;19.70;;;;;;;6.65;100.00;102594.06;5211757;28;20013;-71
2023/12/19 01:17:52;;;;;;;53.58;21.33;;;;;;;6.54;100.00;102592.09;5202886;28;20611;-70
2023/12/19 01:20:22;;;;;;;54.03;19.45;;;;;;;6.58;100.00;102593.59;5211103;28;20021;-71
2023/12/19 01:22:53;;;;;;;52.88;19.38;;;;;;;6.66;100.00;102593.94;5209824;28;20024;-71
2023/12/19 01:25:23;;;;;;;55.05;21.50;;;;;;;6.78;100.00;102594.13;5202742;28;20481;-71
2023/12/19 01:27:54;;;;;;;52.08;21.02;;;;;;;6.59;100.00;102583.78;5203042;28;20036;-71
2023/12/19 01:30:24;;;;;;;49.70;19.55;;;;;;;6.64;100.00;102576.34;5206350;28;20542;-70
2023/12/19 01:32:55;;;;;;;52.65;20.60;;;;;;;6.65;100.00;102594.06;5215513;28;20030;-70
2023/12/19 01:35:25;;;;;;;54.67;20.27;;;;;;;6.73;100.00;102589.97;5202741;28;20032;-71
2023/12/19 01:37:56;;;;;;;54.08;21.55;;;;;;;6.75;100.00;102573.84;5202760;28;20026;-71
2023/12/19 01:40:31;;;;;;;52.60;21.17;;;;;;;6.78;100.00;102571.00;5210839;28;20044;-71
2023/12/19 01:43:01;;;;;;;53.03;19.85;;;;;;;6.72;100.00;102572.22;5211337;28;20382;-71
2023/12/19 01:45:32;;;;;;;55.67;20.13;;;;;;;6.79;100.00;102570.03;5202756;28;20029;-71
2023/12/19 01:48:03;;;;;;;55.08;20.55;;;;;;;6.73;100.00;102560.63;5219221;28;20025;-71
2023/12/19 01:50:34;;;;;;;60.17;19.98;;;;;;;6.86;100.00;102557.13;5207282;28;20022;-71
2023/12/19 01:53:04;;;;;;;54.00;20.65;;;;;;;6.78;100.00;102557.66;5210861;28;20455;-71
2023/12/19 01:55:36;;;;;;;50.92;20.00;;;;;;;6.82;100.00;102561.81;5207784;28;20018;-71
2023/12/19 01:58:09;;;;;;;52.97;20.38;;;;;;;6.71;100.00;102554.50;5205111;28;20045;-71
2023/12/19 02:00:40;;;;;;;53.30;21.05;;;;;;;6.88;100.00;102552.56;5208238;28;20025;-70
2023/12/19 02:03:11;;;;;;;54.72;19.75;;;;;;;6.86;100.00;102555.31;5213154;28;20029;-70
2023/12/19 02:05:44;;;;;;;56.28;20.30;;;;;;;6.87;100.00;102550.84;5210673;28;20479;-71
2023/12/19 02:08:14;;;;;;;53.17;20.20;;;;;;;6.79;100.00;102551.34;5220442;28;20565;-70
2023/12/19 02:10:45;;;;;;;60.25;21.08;;;;;;;6.86;100.00;102543.78;5214672;28;20101;-70
2023/12/19 02:13:15;;;;;;;52.03;20.45;;;;;;;6.97;100.00;102547.47;5221273;28;20033;-70
2023/12/19 02:15:46;;;;;;;54.60;20.00;;;;;;;6.99;100.00;102550.03;5207654;28;20054;-70
2023/12/19 02:18:18;;;;;;;52.55;22.33;;;;;;;7.03;100.00;102553.34;5204504;28;20028;-70
2023/12/19 02:20:48;;;;;;;57.30;20.63;;;;;;;7.12;100.00;102536.72;5205973;28;20508;-71
2023/12/19 02:23:19;;;;;;;51.72;21.15;;;;;;;7.06;100.00;102546.00;5212559;28;20029;-70
2023/12/19 02:25:51;;;;;;;51.97;20.92;;;;;;;7.05;100.00;102543.44;5205698;28;20028;-70
2023/12/19 02:28:22;;;;;;;55.13;20.50;;;;;;;7.10;100.00;102541.31;5205993;28;20022;-71
2023/12/19 02:30:52;;;;;;;53.25;21.40;;;;;;;7.04;100.00;102542.59;5216010;28;20029;-71
2023/12/19 02:33:23;;;;;;;48.15;19.77;;;;;;;6.96;100.00;102543.09;5205896;28;20628;-70
2023/12/19 02:35:53;;;;;;;56.85;20.92;;;;;;;6.86;100.00;102527.78;5206917;28;20391;-70
2023/12/19 02:38:24;;;;;;;59.13;21.75;;;;;;;6.90;100.00;102519.47;5224536;28;20051;-71
2023/12/19 02:40:54;;;;;;;56.25;20.95;;;;;;;6.88;100.00;102523.22;5222233;28;20029;-71
2023/12/19 02:43:24;;;;;;;59.65;21.73;;;;;;;6.91;100.00;102515.00;5206581;28;20472;-71
2023/12/19 02:45:55;;;;;;;55.67;21.55;;;;;;;7.01;100.00;102519.63;5205719;28;20021;-72
2023/12/19 02:48:26;;;;;;;64.30;21.73;;;;;;;7.06;100.00;102507.78;5205930;28;20136;-71
2023/12/19 02:50:57;;;;;;;59.03;20.30;;;;;;;7.07;100.00;102502.34;5205639;28;20017;-71
2023/12/19 02:53:28;;;;;;;55.63;22.30;;;;;;;7.08;100.00;102512.06;5206166;28;20033;-71
2023/12/19 02:55:59;;;;;;;59.97;21.55;;;;;;;7.10;100.00;102503.97;5205934;28;20025;-71
2023/12/19 02:58:29;;;;;;;56.88;20.50;;;;;;;7.10;100.00;102511.97;5205983;28;20083;-71
2023/12/19 03:01:00;;;;;;;62.67;22.40;;;;;;;7.05;100.00;102511.41;5205865;28;20026;-71
2023/12/19 03:03:30;;;;;;;58.80;21.27;;;;;;;7.08;100.00;102509.41;5222167;28;20084;-71
2023/12/19 03:06:01;;;;;;;52.58;22.33;;;;;;;7.22;100.00;102503.97;5205481;28;20116;-71
2023/12/19 03:08:34;;;;;;;56.55;20.30;;;;;;;7.20;100.00;102494.38;5205825;28;20221;-71
2023/12/19 03:11:04;;;;;;;57.47;22.02;;;;;;;7.21;100.00;102483.59;5205477;28;20198;-71
2023/12/19 03:13:38;;;;;;;57.63;22.73;;;;;;;7.11;100.00;102482.50;5212611;28;20021;-71
2023/12/19 03:16:08;;;;;;;58.45;22.02;;;;;;;7.14;100.00;102473.44;5221630;28;20051;-71
2023/12/19 03:18:39;;;;;;;51.95;20.58;;;;;;;7.18;100.00;102464.28;5218848;28;20079;-71
2023/12/19 03:21:09;;;;;;;53.40;20.80;;;;;;;7.24;100.00;102469.19;5216314;28;20075;-71
2023/12/19 03:23:40;;;;;;;55.60;21.90;;;;;;;7.31;100.00;102456.25;5213257;28;20358;-71
2023/12/19 03:26:11;;;;;;;55.53;20.42;;;;;;;7.39;100.00;102465.47;5205877;28;20026;-70
2023/12/19 03:28:41;;;;;;;55.35;21.08;;;;;;;7.26;100.00;102459.25;5215513;28;20017;-70
2023/12/19 03:31:15;;;;;;;54.70;21.80;;;;;;;7.26;100.00;102440.56;5217010;28;20082;-70
2023/12/19 03:33:46;;;;;;;47.97;20.70;;;;;;;7.30;100.00;102455.41;5205151;28;20025;-71
2023/12/19 03:36:16;;;;;;;53.55;21.10;;;;;;;7.22;100.00;102436.38;5204844;28;20018;-71
2023/12/19 03:38:48;;;;;;;65.20;21.55;;;;;;;7.25;100.00;102449.53;5209163;28;20027;-69
2023/12/19 03:41:18;;;;;;;61.17;22.45;;;;;;;7.15;100.00;102433.28;5204565;28;20117;-71
2023/12/19 03:43:49;;;;;;;51.47;21.23;;;;;;;7.21;100.00;102426.66;5211190;28;20431;-70
2023/12/19 03:46:19;;;;;;;56.75;21.67;;;;;;;7.36;100.00;102428.28;5206690;28;20029;-71
2023/12/19 03:48:50;;;;;;;52.72;21.70;;;;;;;7.26;100.00;102428.06;5204295;28;20040;-70
2023/12/19 03:51:20;;;;;;;63.60;21.63;;;;;;;7.19;100.00;102418.78;5215960;28;20025;-71
2023/12/19 03:53:51;;;;;;;56.00;20.60;;;;;;;7.26;100.00;102419.19;5199358;28;20057;-71
2023/12/19 03:56:21;;;;;;;52.67;21.30;;;;;;;7.24;100.00;102415.78;5201227;28;20405;-70
2023/12/19 03:58:52;;;;;;;62.53;21.65;;;;;;;7.30;100.00;102410.03;5198570;28;20064;-71
2023/12/19 04:01:24;;;;;;;71.85;22.73;;;;;;;7.30;100.00;102415.38;5212666;28;20018;-71
2023/12/19 04:03:55;;;;;;;54.38;20.25;;;;;;;7.26;100.00;102392.50;5204468;28;20083;-71
2023/12/19 04:06:25;;;;;;;52.40;20.10;;;;;;;7.32;100.00;102396.56;5215543;28;20025;-70
2023/12/19 04:08:56;;;;;;;59.30;20.02;;;;;;;7.32;100.00;102396.56;5209637;28;20035;-71
2023/12/19 04:11:26;;;;;;;52.65;20.42;;;;;;;7.34;100.00;102394.66;5202272;28;20388;-70
2023/12/19 04:13:56;;;;;;;55.25;20.95;;;;;;;7.19;100.00;102386.75;5203618;28;20076;-71
2023/12/19 04:16:27;;;;;;;47.63;20.27;;;;;;;7.36;100.00;102388.22;5207960;28;20030;-70
2023/12/19 04:18:57;;;;;;;49.80;20.42;;;;;;;7.43;100.00;102385.97;5203930;28;20100;-70
2023/12/19 04:21:28;;;;;;;49.83;19.48;;;;;;;7.32;100.00;102383.22;5203962;28;20028;-71
2023/12/19 04:23:58;;;;;;;50.72;20.15;;;;;;;7.35;100.00;102375.84;5215832;28;20024;-71
2023/12/19 04:26:29;;;;;;;48.50;21.17;;;;;;;7.32;100.00;102376.06;5206414;28;20075;-71
2023/12/19 04:28:59;;;;;;;51.47;21.38;;;;;;;7.29;100.00;102378.09;5209966;28;20029;-71
2023/12/19 04:31:30;;;;;;;50.50;20.15;;;;;;;7.41;100.00;102367.41;5206642;28;20056;-70
2023/12/19 04:34:02;;;;;;;47.80;19.70;;;;;;;7.47;100.00;102364.28;5207153;28;20477;-71
2023/12/19 04:36:33;;;;;;;48.85;20.63;;;;;;;7.33;100.00;102356.44;5214813;28;20017;-70
2023/12/19 04:39:03;;;;;;;55.85;18.95;;;;;;;7.39;100.00;102369.34;5206251;28;20153;-70
2023/12/19 04:41:34;;;;;;;44.38;20.30;;;;;;;7.45;100.00;102354.69;5209524;28;20021;-71
2023/12/19 04:44:05;;;;;;;40.95;19.10;;;;;;;7.48;100.00;102338.44;5203402;28;20029;-71
2023/12/19 04:46:35;;;;;;;47.40;19.13;;;;;;;7.48;100.00;102330.41;5203469;28;20029;-70
2023/12/19 04:49:06;;;;;;;46.75;19.15;;;;;;;7.24;100.00;102346.38;5203317;28;20033;-71
2023/12/19 04:51:36;;;;;;;52.05;20.20;;;;;;;7.40;100.00;102346.16;5211151;28;20473;-70
2023/12/19 04:54:08;;;;;;;46.67;19.25;;;;;;;7.38;100.00;102361.41;5202994;28;20099;-72
2023/12/19 04:56:39;;;;;;;40.45;19.08;;;;;;;7.26;100.00;102353.31;5217646;28;20115;-71
2023/12/19 04:59:09;;;;;;;50.80;20.65;;;;;;;7.45;100.00;102352.88;5223350;28;20027;-71
2023/12/19 05:01:40;;;;;;;42.92;17.98;;;;;;;7.37;100.00;102333.00;5207616;28;20020;-71
2023/12/19 05:04:11;;;;;;;53.92;20.08;;;;;;;7.35;100.00;102348.31;5206847;28;20064;-71
2023/12/19 05:06:42;;;;;;;45.35;18.70;;;;;;;7.22;100.00;102327.78;5202009;28;20456;-71
2023/12/19 05:09:12;;;;;;;50.42;19.00;;;;;;;7.26;100.00;102341.78;5208645;28;20435;-71
2023/12/19 05:11:44;;;;;;;44.63;17.25;;;;;;;7.29;100.00;102341.59;5207776;28;20087;-71
2023/12/19 05:14:14;;;;;;;43.50;18.75;;;;;;;7.22;100.00;102353.63;5202569;28;20083;-71
2023/12/19 05:16:45;;;;;;;42.58;18.67;;;;;;;7.23;100.00;102350.03;5195695;28;20424;-70
2023/12/19 05:19:15;;;;;;;40.38;17.83;;;;;;;7.24;100.00;102338.38;5217069;28;20024;-71
2023/12/19 05:21:46;;;;;;;40.00;17.55;;;;;;;7.24;100.00;102325.88;5209175;28;20014;-70
2023/12/19 05:24:18;;;;;;;41.20;17.73;;;;;;;7.31;100.00;102326.28;5215734;28;20017;-71
2023/12/19 05:26:48;;;;;;;39.35;17.80;;;;;;;7.24;100.00;102325.88;5204606;28;20037;-70
2023/12/19 05:29:19;;;;;;;37.45;16.45;;;;;;;7.37;100.00;102317.84;5206295;28;20030;-70
2023/12/19 05:31:49;;;;;;;42.67;17.67;;;;;;;7.66;100.00;102306.88;5205321;28;20030;-71
2023/12/19 05:34:20;;;;;;;34.92;15.93;;;;;;;7.57;100.00;102292.38;5202582;28;20034;-71
2023/12/19 05:36:50;;;;;;;39.35;16.70;;;;;;;7.63;100.00;102299.09;5202921;28;20096;-71
2023/12/19 05:39:21;;;;;;;37.28;15.68;;;;;;;7.77;100.00;102278.41;5212161;28;20032;-71
2023/12/19 05:41:55;;;;;;;38.03;17.75;;;;;;;7.63;100.00;102280.38;5219382;28;20506;-70
2023/12/19 05:44:26;;;;;;;34.00;16.08;;;;;;;7.57;100.00;102283.50;5213855;28;20025;-71
2023/12/19 05:46:56;;;;;;;34.92;15.50;;;;;;;7.48;100.00;102267.22;5212182;28;20087;-71
2023/12/19 05:49:27;;;;;;;35.92;16.27;;;;;;;7.57;100.00;102264.81;5206265;28;20407;-71
2023/12/19 05:51:57;;;;;;;40.78;15.70;;;;;;;7.49;100.00;102252.03;5211406;28;20022;-71
2023/12/19 05:54:28;;;;;;;35.22;14.93;;;;;;;7.66;100.00;102259.66;5208094;28;20049;-71
2023/12/19 05:56:58;;;;;;;33.72;15.00;;;;;;;7.65;100.00;102265.97;5210946;28;20496;-71
2023/12/19 05:59:29;;;;;;;36.00;14.98;;;;;;;7.73;100.00;102284.09;5208878;28;20128;-70
2023/12/19 06:01:59;;;;;;;34.45;14.63;;;;;;;7.62;100.00;102276.88;5215040;28;20091;-70
2023/12/19 06:04:30;;;;;;;29.63;14.15;;;;;;;7.70;100.00;102274.50;5222707;28;20029;-71
2023/12/19 06:07:01;;;;;;;29.65;14.02;;;;;;;7.61;100.00;102253.81;5206408;28;20241;-71
2023/12/19 06:09:31;;;;;;;34.63;13.85;;;;;;;7.71;100.00;102256.66;5208585;28;20056;-71
2023/12/19 06:12:03;;;;;;;32.83;13.98;;;;;;;7.79;100.00;102247.09;5205933;28;20062;-71
2023/12/19 06:14:36;;;;;;;34.30;13.35;;;;;;;7.55;100.00;102242.72;5205957;28;20097;-72
2023/12/19 06:17:07;;;;;;;30.60;12.80;;;;;;;7.59;100.00;102225.50;5205822;28;20029;-72
2023/12/19 06:19:38;;;;;;;34.13;13.60;;;;;;;7.65;100.00;102223.22;5217773;28;20029;-72
2023/12/19 06:22:10;;;;;;;29.42;12.00;;;;;;;7.82;100.00;102223.78;5210696;28;20021;-71
2023/12/19 06:24:40;;;;;;;26.80;12.20;;;;;;;7.82;100.00;102207.75;5218226;28;20036;-72
2023/12/19 06:27:15;;;;;;;31.40;13.35;;;;;;;7.80;100.00;102218.56;5218634;28;20481;-71
2023/12/19 06:29:46;;;;;;;30.70;12.77;;;;;;;7.80;100.00;102221.25;5219016;28;20123;-71
2023/12/19 06:32:17;;;;;;;25.40;11.75;;;;;;;7.87;100.00;102233.16;5209556;28;20167;-71
2023/12/19 06:34:47;;;;;;;26.02;12.05;;;;;;;7.85;100.00;102236.94;5205751;28;20120;-72
2023/12/19 06:37:18;;;;;;;29.30;12.75;;;;;;;7.85;100.00;102252.97;5211928;28;20232;-69
2023/12/19 06:39:48;;;;;;;27.00;11.65;;;;;;;7.81;100.00;102235.44;5211589;28;20059;-71
2023/12/19 06:42:21;;;;;;;27.90;12.00;;;;;;;7.78;100.00;102233.84;5206564;28;20420;-71
2023/12/19 06:44:51;;;;;;;27.70;13.13;;;;;;;7.75;100.00;102242.09;5216002;28;20025;-71
2023/12/19 06:47:22;;;;;;;28.23;12.10;;;;;;;7.79;100.00;102235.56;5206102;28;20370;-71
2023/12/19 06:49:52;;;;;;;27.40;12.23;;;;;;;7.76;100.00;102236.63;5214874;28;20025;-71
2023/12/19 06:52:23;;;;;;;26.98;11.88;;;;;;;7.79;100.00;102249.78;5205289;28;20399;-71
2023/12/19 06:54:53;;;;;;;29.80;12.07;;;;;;;7.88;100.00;102245.56;5205419;28;20025;-71
2023/12/19 06:57:24;;;;;;;28.35;12.25;;;;;;;7.82;100.00;102235.31;5206082;28;20192;-71
2023/12/19 06:59:55;;;;;;;32.70;11.80;;;;;;;7.96;100.00;102239.66;5213247;28;20022;-71
2023/12/19 07:02:26;;;;;;;26.42;11.95;;;;;;;7.92;100.00;102246.19;5209406;28;20033;-71
2023/12/19 07:04:57;;;;;;;34.63;13.07;;;;;;;7.92;100.00;102238.16;5217734;28;20040;-71
2023/12/19 07:07:27;;;;;;;29.23;13.63;;;;;;;7.95;100.00;102233.44;5206852;28;20026;-70
2023/12/19 07:09:57;;;;;;;26.05;11.52;;;;;;;7.96;100.00;102218.25;5209391;28;20021;-71
2023/12/19 07:12:28;;;;;;;34.78;12.80;;;;;;;7.88;100.00;102218.84;5212561;28;20035;-69
2023/12/19 07:14:59;;;;;;;37.35;12.98;;;;;;;7.90;100.00;102214.25;5214494;28;20020;-70
2023/12/19 07:17:29;;;;;;;26.00;12.40;;;;;;;7.89;100.00;102220.56;5209177;28;20029;-70
2023/12/19 07:20:00;;;;;;;28.25;12.63;;;;;;;7.90;100.00;102214.25;5216498;28;20036;-72
2023/12/19 07:22:30;;;;;;;28.02;12.93;;;;;;;8.06;100.00;102221.94;5214521;28;20032;-72
2023/12/19 07:25:01;;;;;;;31.95;12.10;;;;;;;7.99;100.00;102220.72;5204282;28;20030;-72
2023/12/19 07:27:31;;;;;;;25.73;12.52;;;;;;;8.01;100.00;102208.06;5215481;28;20499;-72
2023/12/19 07:30:03;;;;;;;31.08;12.52;;;;;;;8.01;100.00;102197.38;5213204;28;20029;-72
2023/12/19 07:32:33;;;;;;;27.90;11.75;;;;;;;8.24;100.00;102188.47;5210678;28;20414;-72
2023/12/19 07:35:05;;;;;;;25.88;12.15;;;;;;;8.08;100.00;102187.06;5212058;28;20036;-72
2023/12/19 07:37:36;;;;;;;26.77;12.43;;;;;;;8.25;100.00;102181.28;5208039;28;20678;-72
2023/12/19 07:40:10;;;;;;;27.35;11.95;;;;;;;8.17;100.00;102199.75;5211579;28;20059;-72
2023/12/19 07:42:41;;;;;;;29.60;11.10;;;;;;;8.20;100.00;102176.31;5213117;28;20032;-72
2023/12/19 07:45:11;;;;;;;29.17;11.27;;;;;;;8.16;100.00;102176.66;5213497;28;20020;-72
2023/12/19 07:47:42;;;;;;;27.02;11.77;;;;;;;8.19;100.00;102163.06;5210187;28;20528;-72
2023/12/19 07:50:12;;;;;;;25.73;11.80;;;;;;;8.17;100.00;102163.16;5206543;28;20044;-72
2023/12/19 07:52:43;;;;;;;23.52;11.27;;;;;;;8.04;100.00;102155.25;5207401;28;20062;-72
2023/12/19 07:55:13;;;;;;;33.20;12.70;;;;;;;8.17;100.00;102160.47;5205987;28;20021;-72
2023/12/19 07:57:44;;;;;;;30.48;11.98;;;;;;;8.07;100.00;102167.50;5212229;28;20547;-72
2023/12/19 08:00:15;;;;;;;25.35;10.80;;;;;;;8.01;100.00;102165.31;5207538;28;20095;-72
2023/12/19 08:02:49;;;;;;;24.67;11.38;;;;;;;8.22;100.00;102173.50;5213624;28;20017;-72
2023/12/19 08:05:20;;;;;;;25.17;10.33;;;;;;;8.17;100.00;102159.63;5206214;28;20437;-72
2023/12/19 08:07:50;;;;;;;25.20;10.63;;;;;;;8.21;100.00;102158.44;5214016;28;20310;-72
2023/12/19 08:10:21;;;;;;;26.70;10.23;;;;;;;8.19;100.00;102177.28;5206149;28;20026;-72
2023/12/19 08:12:51;;;;;;;30.38;11.00;;;;;;;8.22;100.00;102166.31;5203992;28;20026;-71
2023/12/19 08:15:22;;;;;;;28.67;11.68;;;;;;;8.14;100.00;102155.41;5202177;28;20079;-72
2023/12/19 08:17:52;;;;;;;28.67;12.10;;;;;;;8.20;100.00;102152.25;5205937;28;20029;-70
2023/12/19 08:20:23;;;;;;;27.80;11.82;;;;;;;8.14;100.00;102139.34;5213462;28;20488;-72
2023/12/19 08:22:54;;;;;;;26.42;11.82;;;;;;;8.11;100.00;102152.09;5203973;28;20082;-72
2023/12/19 08:25:24;;;;;;;30.17;13.10;;;;;;;8.22;100.00;102144.09;5203957;28;20037;-72
2023/12/19 08:27:55;;;;;;;31.20;13.25;;;;;;;7.87;100.00;102144.97;5204092;28;20476;-71
2023/12/19 08:30:27;;;;;;;38.90;12.52;;;;;;;7.93;100.00;102141.88;5203998;28;20037;-71
2023/12/19 08:32:57;;;;;;;30.13;14.02;;;;;;;7.93;100.00;102149.00;5203946;28;20469;-71
2023/12/19 08:35:29;;;;;;;32.60;13.15;;;;;;;7.86;100.00;102161.16;5203932;28;20025;-71
2023/12/19 08:38:00;;;;;;;37.33;14.30;;;;;;;7.93;100.00;102160.56;5203651;28;20091;-71
2023/12/19 08:40:30;;;;;;;44.25;13.50;;;;;;;7.92;100.00;102153.50;5211466;28;20021;-71
2023/12/19 08:43:00;;;;;;;35.60;15.00;;;;;;;7.79;100.00;102150.09;5218467;28;20165;-71
2023/12/19 08:45:31;;;;;;;33.95;14.68;;;;;;;7.68;100.00;102142.88;5204295;28;20025;-71
2023/12/19 08:48:03;;;;;;;37.00;13.85;;;;;;;7.76;100.00;102144.97;5202454;28;20396;-71
2023/12/19 08:50:33;;;;;;;39.42;13.95;;;;;;;7.77;100.00;102149.31;5201800;28;20025;-71
2023/12/19 08:53:05;;;;;;;39.72;15.23;;;;;;;7.77;100.00;102154.66;5203571;28;20025;-71
2023/12/19 08:55:35;;;;;;;31.88;14.95;;;;;;;7.75;100.00;102149.44;5202552;28;20066;-71
2023/12/19 08:58:07;;;;;;;41.38;16.92;;;;;;;7.74;100.00;102144.22;5206060;28;20017;-71
2023/12/19 09:00:37;;;;;;;37.08;15.32;;;;;;;7.73;100.00;102137.16;5206391;28;20044;-73
2023/12/19 09:03:08;;;;;;;45.63;16.75;;;;;;;7.69;100.00;102135.72;5203395;28;20041;-72
2023/12/19 09:05:38;;;;;;;42.65;16.23;;;;;;;7.71;100.00;102121.25;5209130;28;20029;-71
2023/12/19 09:08:09;;;;;;;39.75;15.57;;;;;;;7.65;100.00;102123.56;5203320;28;20033;-71
2023/12/19 09:10:39;;;;;;;42.05;15.93;;;;;;;7.69;100.00;102133.03;5205933;28;20030;-71
2023/12/19 09:13:10;;;;;;;45.60;16.48;;;;;;;7.68;100.00;102126.84;5202365;28;20029;-71
2023/12/19 09:15:40;;;;;;;38.05;16.15;;;;;;;7.68;100.00;102121.50;5203628;28;20247;-71
2023/12/19 09:18:11;;;;;;;41.35;15.55;;;;;;;7.74;100.00;102125.53;5205864;28;20400;-73
2023/12/19 09:20:41;;;;;;;41.13;16.52;;;;;;;7.66;100.00;102106.56;5201278;28;20511;-71
2023/12/19 09:23:12;;;;;;;47.65;16.67;;;;;;;7.72;100.00;102101.59;5206073;28;20075;-71
2023/12/19 09:25:42;;;;;;;42.63;16.23;;;;;;;7.75;100.00;102116.53;5207898;28;20507;-71
2023/12/19 09:28:13;;;;;;;48.67;15.90;;;;;;;7.79;100.00;102107.34;5203901;28;20412;-71
2023/12/19 09:30:43;;;;;;;37.22;16.17;;;;;;;7.81;100.00;102105.38;5207035;28;20028;-71
2023/12/19 09:33:14;;;;;;;44.53;16.88;;;;;;;7.81;100.00;102108.06;5212145;28;20043;-71
2023/12/19 09:35:44;;;;;;;40.25;16.52;;;;;;;7.83;100.00;102107.94;5208690;28;20040;-70
2023/12/19 09:38:15;;;;;;;45.85;17.73;;;;;;;7.81;100.00;102100.03;5206737;28;20477;-70
2023/12/19 09:40:45;;;;;;;48.28;17.33;;;;;;;7.90;100.00;102103.84;5205874;28;20071;-71
2023/12/19 09:43:16;;;;;;;40.33;15.85;;;;;;;7.71;100.00;102099.91;5205056;28;20076;-70
2023/12/19 09:45:48;;;;;;;41.13;17.15;;;;;;;7.77;100.00;102104.75;5208932;28;20079;-70
2023/12/19 09:48:19;;;;;;;41.65;17.63;;;;;;;7.73;100.00;102113.13;5211179;28;20109;-71
2023/12/19 09:50:51;;;;;;;42.47;17.08;;;;;;;7.90;100.00;102112.69;5208068;28;20435;-70
2023/12/19 09:53:23;;;;;;;38.70;15.38;;;;;;;7.82;100.00;102093.72;5206291;28;20190;-70
2023/12/19 09:55:53;;;;;;;39.28;15.80;;;;;;;7.88;100.00;102089.72;5213250;28;20074;-70
2023/12/19 09:58:25;;;;;;;36.88;14.93;;;;;;;8.02;100.00;102087.69;5203739;28;20033;-70
2023/12/19 10:00:58;;;;;;;44.50;16.02;;;;;;;7.80;100.00;102090.34;5211147;28;20209;-70
2023/12/19 10:03:28;;;;;;;37.33;15.25;;;;;;;7.78;100.00;102085.13;5207606;28;20036;-70
2023/12/19 10:06:00;;;;;;;38.63;15.48;;;;;;;7.76;100.00;102081.69;5206871;28;20033;-70
2023/12/19 10:08:33;;;;;;;37.92;15.02;;;;;;;7.87;100.00;102078.19;5205493;28;20030;-70
2023/12/19 10:11:03;;;;;;;44.50;14.98;;;;;;;7.89;100.00;102073.59;5205894;28;20491;-70
2023/12/19 10:13:35;;;;;;;43.05;15.43;;;;;;;7.80;100.00;102068.97;5206792;28;20112;-70
2023/12/19 10:16:09;;;;;;;37.55;15.43;;;;;;;7.89;100.00;102070.91;5208815;28;20415;-70
2023/12/19 10:18:42;;;;;;;34.35;14.23;;;;;;;8.05;100.00;102063.41;5206049;28;20064;-70
2023/12/19 10:21:14;;;;;;;36.40;15.55;;;;;;;8.26;100.00;102055.50;5211102;28;20400;-70
2023/12/19 10:23:45;;;;;;;36.08;15.20;;;;;;;8.21;100.00;102049.69;5208111;28;20033;-70
2023/12/19 10:26:15;;;;;;;40.35;16.77;;;;;;;8.21;100.00;102047.00;5211720;28;20039;-70
2023/12/19 10:28:55;;;;;;;38.85;15.30;;;;;;;8.25;100.00;102045.78;5205790;28;20025;-72
2023/12/19 10:31:26;;;;;;;40.88;15.88;;;;;;;8.19;100.00;102040.94;5209412;28;20047;-71
2023/12/19 10:33:56;;;;;;;42.55;15.35;;;;;;;8.19;100.00;102026.72;5209984;28;20017;-71
2023/12/19 10:36:29;;;;;;;37.70;15.45;;;;;;;8.22;100.00;102023.78;5206958;28;20088;-70
2023/12/19 10:39:01;;;;;;;32.17;13.52;;;;;;;8.20;100.00;102018.56;5205850;28;20033;-71
2023/12/19 10:41:33;;;;;;;34.15;13.32;;;;;;;8.31;100.00;102023.06;5205437;28;20714;-71
2023/12/19 10:44:04;;;;;;;35.53;12.88;;;;;;;8.24;100.00;102003.16;5202649;28;20076;-71
2023/12/19 10:46:35;;;;;;;30.30;12.98;;;;;;;8.28;100.00;102001.91;5206243;28;20029;-71
2023/12/19 10:49:05;;;;;;;29.00;12.68;;;;;;;8.27;100.00;101995.72;5208502;28;20443;-70
2023/12/19 10:51:41;;;;;;;32.92;12.20;;;;;;;8.38;100.00;101981.50;5204950;28;20044;-70
2023/12/19 10:54:14;;;;;;;34.28;12.07;;;;;;;8.43;100.00;101970.44;5206232;28;20025;-72
2023/12/19 10:57:05;;;;;;;33.72;12.50;;;;;;;8.42;100.00;101971.41;5206793;28;20056;-71
2023/12/19 10:59:58;;;;;;;33.40;12.57;;;;;;;8.41;100.00;101975.06;5205474;28;20112;-70
2023/12/19 11:02:37;;;;;;;35.75;14.55;;;;;;;8.45;100.00;101965.84;5205522;28;20029;-71
2023/12/19 11:05:27;;;;;;;27.15;11.93;;;;;;;8.45;100.00;101955.13;5206598;28;20395;-71
2023/12/19 11:08:03;;;;;;;70.43;45.38;;;;;;;8.52;100.00;101954.50;5203831;28;20033;-70
2023/12/19 11:10:38;;;;;;;29.98;12.18;;;;;;;8.51;100.00;101947.44;5203455;28;20065;-70
2023/12/19 11:13:11;;;;;;;24.27;11.27;;;;;;;8.73;100.00;101935.81;5209991;28;20031;-70
2023/12/19 11:15:49;;;;;;;27.35;11.93;;;;;;;8.74;100.00;101934.00;5213700;28;20198;-72
2023/12/19 11:18:32;;;;;;;23.80;11.13;;;;;;;8.76;100.00;101937.41;5205615;28;20388;-73
2023/12/19 11:21:11;;;;;;;29.05;11.68;;;;;;;8.66;100.00;101920.41;5205206;28;20040;-71
2023/12/19 11:24:03;;;;;;;26.55;11.90;;;;;;;8.70;100.00;101924.53;5208865;28;20464;-70
2023/12/19 11:26:48;;;;;;;28.25;12.40;;;;;;;8.57;100.00;101916.66;5201779;28;20036;-72
2023/12/19 11:29:43;;;;;;;24.17;11.40;;;;;;;8.72;100.00;101917.22;5205272;28;20027;-72